sensor_id;sensor_type;location;lat;lon;timestamp;temperature;humidity
65378;SHT31;51982;51.042;13.806;2023-04-23T00:01:16;17.38;65.68
65378;SHT31;51982;51.042;13.806;2023-04-23T00:03:42;17.40;66.28
65378;SHT31;51982;51.042;13.806;2023-04-23T00:06:08;17.38;66.31
65378;SHT31;51982;51.042;13.806;2023-04-23T00:08:38;17.38;66.50
65378;SHT31;51982;51.042;13.806;2023-04-23T00:11:04;17.38;66.98
65378;SHT31;51982;51.042;13.806;2023-04-23T00:13:30;17.38;67.27
65378;SHT31;51982;51.042;13.806;2023-04-23T00:15:55;17.30;67.47
65378;SHT31;51982;51.042;13.806;2023-04-23T00:18:21;17.30;67.55
65378;SHT31;51982;51.042;13.806;2023-04-23T00:20:46;17.29;67.56
65378;SHT31;51982;51.042;13.806;2023-04-23T00:23:11;17.28;67.94
65378;SHT31;51982;51.042;13.806;2023-04-23T00:25:37;17.26;67.83
65378;SHT31;51982;51.042;13.806;2023-04-23T00:28:02;17.25;67.83
65378;SHT31;51982;51.042;13.806;2023-04-23T00:30:28;17.22;68.02
65378;SHT31;51982;51.042;13.806;2023-04-23T00:32:53;17.22;68.38
65378;SHT31;51982;51.042;13.806;2023-04-23T00:35:18;17.22;68.25
65378;SHT31;51982;51.042;13.806;2023-04-23T00:37:44;17.19;68.62
65378;SHT31;51982;51.042;13.806;2023-04-23T00:40:10;17.19;68.67
65378;SHT31;51982;51.042;13.806;2023-04-23T00:42:37;17.15;68.71
65378;SHT31;51982;51.042;13.806;2023-04-23T00:45:03;17.12;68.61
65378;SHT31;51982;51.042;13.806;2023-04-23T00:47:30;17.14;68.90
65378;SHT31;51982;51.042;13.806;2023-04-23T00:49:55;17.12;68.83
65378;SHT31;51982;51.042;13.806;2023-04-23T00:52:20;17.07;69.19
65378;SHT31;51982;51.042;13.806;2023-04-23T00:54:46;17.01;69.29
65378;SHT31;51982;51.042;13.806;2023-04-23T00:57:11;17.02;69.24
65378;SHT31;51982;51.042;13.806;2023-04-23T00:59:36;17.02;69.51
65378;SHT31;51982;51.042;13.806;2023-04-23T01:02:02;17.04;69.61
65378;SHT31;51982;51.042;13.806;2023-04-23T01:04:28;17.02;69.98
65378;SHT31;51982;51.042;13.806;2023-04-23T01:06:55;17.04;70.06
65378;SHT31;51982;51.042;13.806;2023-04-23T01:09:22;17.02;70.23
65378;SHT31;51982;51.042;13.806;2023-04-23T01:11:48;16.99;70.21
65378;SHT31;51982;51.042;13.806;2023-04-23T01:14:15;16.99;70.43
65378;SHT31;51982;51.042;13.806;2023-04-23T01:16:40;16.96;70.28
65378;SHT31;51982;51.042;13.806;2023-04-23T01:19:07;16.89;70.50
65378;SHT31;51982;51.042;13.806;2023-04-23T01:21:35;16.81;70.49
65378;SHT31;51982;51.042;13.806;2023-04-23T01:24:05;16.74;70.52
65378;SHT31;51982;51.042;13.806;2023-04-23T01:26:30;16.74;70.28
65378;SHT31;51982;51.042;13.806;2023-04-23T01:28:56;16.78;70.09
65378;SHT31;51982;51.042;13.806;2023-04-23T01:31:22;16.79;70.06
65378;SHT31;51982;51.042;13.806;2023-04-23T01:33:49;16.79;70.14
65378;SHT31;51982;51.042;13.806;2023-04-23T01:36:15;16.82;70.28
65378;SHT31;51982;51.042;13.806;2023-04-23T01:38:40;16.82;70.27
65378;SHT31;51982;51.042;13.806;2023-04-23T01:41:05;16.81;70.45
65378;SHT31;51982;51.042;13.806;2023-04-23T01:43:31;16.78;70.56
65378;SHT31;51982;51.042;13.806;2023-04-23T01:45:57;16.78;70.66
65378;SHT31;51982;51.042;13.806;2023-04-23T01:48:23;16.71;70.81
65378;SHT31;51982;51.042;13.806;2023-04-23T01:50:49;16.69;71.23
65378;SHT31;51982;51.042;13.806;2023-04-23T01:53:15;16.65;71.40
65378;SHT31;51982;51.042;13.806;2023-04-23T01:55:42;16.63;71.18
65378;SHT31;51982;51.042;13.806;2023-04-23T01:58:07;16.61;71.36
65378;SHT31;51982;51.042;13.806;2023-04-23T02:00:32;16.61;71.54
65378;SHT31;51982;51.042;13.806;2023-04-23T02:02:57;16.56;71.77
65378;SHT31;51982;51.042;13.806;2023-04-23T02:05:23;16.53;71.70
65378;SHT31;51982;51.042;13.806;2023-04-23T02:07:50;16.51;71.66
65378;SHT31;51982;51.042;13.806;2023-04-23T02:10:16;16.50;71.76
65378;SHT31;51982;51.042;13.806;2023-04-23T02:12:43;16.48;72.14
65378;SHT31;51982;51.042;13.806;2023-04-23T02:15:09;16.48;72.02
65378;SHT31;51982;51.042;13.806;2023-04-23T02:17:35;16.47;72.40
65378;SHT31;51982;51.042;13.806;2023-04-23T02:20:01;16.47;72.34
65378;SHT31;51982;51.042;13.806;2023-04-23T02:22:27;16.43;72.30
65378;SHT31;51982;51.042;13.806;2023-04-23T02:24:53;16.46;72.21
65378;SHT31;51982;51.042;13.806;2023-04-23T02:27:19;16.44;72.16
65378;SHT31;51982;51.042;13.806;2023-04-23T02:29:45;16.43;72.27
65378;SHT31;51982;51.042;13.806;2023-04-23T02:32:10;16.44;72.27
65378;SHT31;51982;51.042;13.806;2023-04-23T02:34:36;16.46;72.26
65378;SHT31;51982;51.042;13.806;2023-04-23T02:37:02;16.44;72.46
65378;SHT31;51982;51.042;13.806;2023-04-23T02:39:29;16.44;72.81
65378;SHT31;51982;51.042;13.806;2023-04-23T02:41:54;16.40;72.64
65378;SHT31;51982;51.042;13.806;2023-04-23T02:44:20;16.41;72.72
65378;SHT31;51982;51.042;13.806;2023-04-23T02:46:45;16.41;73.07
65378;SHT31;51982;51.042;13.806;2023-04-23T02:49:11;16.43;72.89
65378;SHT31;51982;51.042;13.806;2023-04-23T02:51:36;16.41;73.02
65378;SHT31;51982;51.042;13.806;2023-04-23T02:54:01;16.43;72.98
65378;SHT31;51982;51.042;13.806;2023-04-23T02:56:28;16.38;73.21
65378;SHT31;51982;51.042;13.806;2023-04-23T02:58:53;16.40;72.98
65378;SHT31;51982;51.042;13.806;2023-04-23T03:01:18;16.37;73.29
65378;SHT31;51982;51.042;13.806;2023-04-23T03:03:44;16.37;73.19
65378;SHT31;51982;51.042;13.806;2023-04-23T03:06:09;16.37;73.28
65378;SHT31;51982;51.042;13.806;2023-04-23T03:08:34;16.33;73.34
65378;SHT31;51982;51.042;13.806;2023-04-23T03:11:00;16.33;73.46
65378;SHT31;51982;51.042;13.806;2023-04-23T03:13:25;16.30;73.53
65378;SHT31;51982;51.042;13.806;2023-04-23T03:15:51;16.30;73.54
65378;SHT31;51982;51.042;13.806;2023-04-23T03:18:17;16.24;73.65
65378;SHT31;51982;51.042;13.806;2023-04-23T03:20:42;16.26;73.17
65378;SHT31;51982;51.042;13.806;2023-04-23T03:23:07;16.31;72.62
65378;SHT31;51982;51.042;13.806;2023-04-23T03:25:33;16.27;72.40
65378;SHT31;51982;51.042;13.806;2023-04-23T03:27:58;16.27;72.40
65378;SHT31;51982;51.042;13.806;2023-04-23T03:30:24;16.26;72.19
65378;SHT31;51982;51.042;13.806;2023-04-23T03:32:49;16.30;72.17
65378;SHT31;51982;51.042;13.806;2023-04-23T03:35:15;16.33;72.14
65378;SHT31;51982;51.042;13.806;2023-04-23T03:37:40;16.30;72.25
65378;SHT31;51982;51.042;13.806;2023-04-23T03:40:06;16.28;72.12
65378;SHT31;51982;51.042;13.806;2023-04-23T03:42:33;16.31;71.51
65378;SHT31;51982;51.042;13.806;2023-04-23T03:44:59;16.36;71.31
65378;SHT31;51982;51.042;13.806;2023-04-23T03:47:25;16.34;71.13
65378;SHT31;51982;51.042;13.806;2023-04-23T03:49:51;16.34;70.89
65378;SHT31;51982;51.042;13.806;2023-04-23T03:52:16;16.36;70.81
65378;SHT31;51982;51.042;13.806;2023-04-23T03:54:41;16.37;70.84
65378;SHT31;51982;51.042;13.806;2023-04-23T03:57:07;16.41;71.00
65378;SHT31;51982;51.042;13.806;2023-04-23T03:59:33;16.43;70.79
65378;SHT31;51982;51.042;13.806;2023-04-23T04:01:58;16.41;70.73
65378;SHT31;51982;51.042;13.806;2023-04-23T04:04:23;16.41;70.42
65378;SHT31;51982;51.042;13.806;2023-04-23T04:06:48;16.43;70.22
65378;SHT31;51982;51.042;13.806;2023-04-23T04:09:14;16.46;70.05
65378;SHT31;51982;51.042;13.806;2023-04-23T04:11:39;16.47;69.97
65378;SHT31;51982;51.042;13.806;2023-04-23T04:14:05;16.47;69.99
65378;SHT31;51982;51.042;13.806;2023-04-23T04:16:30;16.48;70.21
65378;SHT31;51982;51.042;13.806;2023-04-23T04:18:55;16.48;70.51
65378;SHT31;51982;51.042;13.806;2023-04-23T04:21:21;16.51;70.85
65378;SHT31;51982;51.042;13.806;2023-04-23T04:23:46;16.53;71.09
65378;SHT31;51982;51.042;13.806;2023-04-23T04:26:11;16.53;71.14
65378;SHT31;51982;51.042;13.806;2023-04-23T04:28:37;16.51;71.12
65378;SHT31;51982;51.042;13.806;2023-04-23T04:31:04;16.53;71.24
65378;SHT31;51982;51.042;13.806;2023-04-23T04:33:30;16.56;71.24
65378;SHT31;51982;51.042;13.806;2023-04-23T04:35:57;16.56;71.08
65378;SHT31;51982;51.042;13.806;2023-04-23T04:38:23;16.58;71.23
65378;SHT31;51982;51.042;13.806;2023-04-23T04:40:48;16.57;71.23
65378;SHT31;51982;51.042;13.806;2023-04-23T04:43:14;16.61;71.22
65378;SHT31;51982;51.042;13.806;2023-04-23T04:45:41;16.64;71.29
65378;SHT31;51982;51.042;13.806;2023-04-23T04:48:06;16.63;71.54
65378;SHT31;51982;51.042;13.806;2023-04-23T04:50:32;16.64;71.60
65378;SHT31;51982;51.042;13.806;2023-04-23T04:52:57;16.65;71.36
65378;SHT31;51982;51.042;13.806;2023-04-23T04:55:22;16.68;71.44
65378;SHT31;51982;51.042;13.806;2023-04-23T04:57:47;16.71;71.26
65378;SHT31;51982;51.042;13.806;2023-04-23T05:00:23;16.72;71.23
65378;SHT31;51982;51.042;13.806;2023-04-23T05:02:50;16.77;71.35
65378;SHT31;51982;51.042;13.806;2023-04-23T05:05:17;16.79;71.44
65378;SHT31;51982;51.042;13.806;2023-04-23T05:07:42;16.81;71.30
65378;SHT31;51982;51.042;13.806;2023-04-23T05:10:08;16.88;71.31
65378;SHT31;51982;51.042;13.806;2023-04-23T05:12:33;16.92;71.25
65378;SHT31;51982;51.042;13.806;2023-04-23T05:14:59;16.96;71.26
65378;SHT31;51982;51.042;13.806;2023-04-23T05:17:24;16.98;71.15
65378;SHT31;51982;51.042;13.806;2023-04-23T05:19:49;16.95;71.02
65378;SHT31;51982;51.042;13.806;2023-04-23T05:22:15;16.95;71.21
65378;SHT31;51982;51.042;13.806;2023-04-23T05:24:42;16.98;71.28
65378;SHT31;51982;51.042;13.806;2023-04-23T05:27:07;16.95;71.40
65378;SHT31;51982;51.042;13.806;2023-04-23T05:29:32;16.96;71.37
65378;SHT31;51982;51.042;13.806;2023-04-23T05:31:58;17.01;71.60
65378;SHT31;51982;51.042;13.806;2023-04-23T05:34:23;17.05;71.36
65378;SHT31;51982;51.042;13.806;2023-04-23T05:36:48;17.07;71.51
65378;SHT31;51982;51.042;13.806;2023-04-23T05:39:13;17.05;71.54
65378;SHT31;51982;51.042;13.806;2023-04-23T05:41:38;17.08;71.64
65378;SHT31;51982;51.042;13.806;2023-04-23T05:44:04;17.07;71.66
65378;SHT31;51982;51.042;13.806;2023-04-23T05:46:29;17.09;71.63
65378;SHT31;51982;51.042;13.806;2023-04-23T05:48:54;17.14;71.72
65378;SHT31;51982;51.042;13.806;2023-04-23T05:51:19;17.15;71.73
65378;SHT31;51982;51.042;13.806;2023-04-23T05:53:45;17.15;71.87
65378;SHT31;51982;51.042;13.806;2023-04-23T05:56:11;17.19;71.87
65378;SHT31;51982;51.042;13.806;2023-04-23T05:58:36;17.19;72.06
65378;SHT31;51982;51.042;13.806;2023-04-23T06:01:03;17.21;71.93
65378;SHT31;51982;51.042;13.806;2023-04-23T06:03:28;17.21;71.96
65378;SHT31;51982;51.042;13.806;2023-04-23T06:05:53;17.22;72.12
65378;SHT31;51982;51.042;13.806;2023-04-23T06:08:18;17.26;72.13
65378;SHT31;51982;51.042;13.806;2023-04-23T06:10:44;17.33;71.97
65378;SHT31;51982;51.042;13.806;2023-04-23T06:13:10;17.35;72.06
65378;SHT31;51982;51.042;13.806;2023-04-23T06:15:35;17.43;72.14
65378;SHT31;51982;51.042;13.806;2023-04-23T06:18:00;17.49;72.02
65378;SHT31;51982;51.042;13.806;2023-04-23T06:20:26;17.62;71.97
65378;SHT31;51982;51.042;13.806;2023-04-23T06:22:51;17.67;71.75
65378;SHT31;51982;51.042;13.806;2023-04-23T06:25:16;17.73;71.87
65378;SHT31;51982;51.042;13.806;2023-04-23T06:27:44;17.80;71.94
65378;SHT31;51982;51.042;13.806;2023-04-23T06:30:09;17.87;71.91
65378;SHT31;51982;51.042;13.806;2023-04-23T06:32:35;17.94;71.88
65378;SHT31;51982;51.042;13.806;2023-04-23T06:35:00;18.05;71.79
65378;SHT31;51982;51.042;13.806;2023-04-23T06:37:25;18.11;71.67
65378;SHT31;51982;51.042;13.806;2023-04-23T06:39:52;18.21;71.42
65378;SHT31;51982;51.042;13.806;2023-04-23T06:42:17;18.25;71.39
65378;SHT31;51982;51.042;13.806;2023-04-23T06:44:42;18.34;71.20
65378;SHT31;51982;51.042;13.806;2023-04-23T06:47:07;18.32;71.36
65378;SHT31;51982;51.042;13.806;2023-04-23T06:49:33;18.34;71.23
65378;SHT31;51982;51.042;13.806;2023-04-23T06:51:58;18.35;71.31
65378;SHT31;51982;51.042;13.806;2023-04-23T06:54:23;18.38;71.43
65378;SHT31;51982;51.042;13.806;2023-04-23T06:56:48;18.42;71.42
65378;SHT31;51982;51.042;13.806;2023-04-23T06:59:15;18.44;71.46
65378;SHT31;51982;51.042;13.806;2023-04-23T07:01:40;18.40;71.33
65378;SHT31;51982;51.042;13.806;2023-04-23T07:04:06;18.44;71.53
65378;SHT31;51982;51.042;13.806;2023-04-23T07:06:32;18.44;71.34
65378;SHT31;51982;51.042;13.806;2023-04-23T07:08:58;18.41;71.38
65378;SHT31;51982;51.042;13.806;2023-04-23T07:11:24;18.31;71.06
65378;SHT31;51982;51.042;13.806;2023-04-23T07:13:50;18.31;71.21
65378;SHT31;51982;51.042;13.806;2023-04-23T07:16:15;18.28;71.12
65378;SHT31;51982;51.042;13.806;2023-04-23T07:18:40;18.28;71.00
65378;SHT31;51982;51.042;13.806;2023-04-23T07:21:05;18.31;70.75
65378;SHT31;51982;51.042;13.806;2023-04-23T07:23:31;18.35;70.62
65378;SHT31;51982;51.042;13.806;2023-04-23T07:25:56;18.32;70.41
65378;SHT31;51982;51.042;13.806;2023-04-23T07:28:21;18.32;70.30
65378;SHT31;51982;51.042;13.806;2023-04-23T07:30:47;18.38;70.31
65378;SHT31;51982;51.042;13.806;2023-04-23T07:33:13;18.38;70.32
65378;SHT31;51982;51.042;13.806;2023-04-23T07:35:38;18.42;70.17
65378;SHT31;51982;51.042;13.806;2023-04-23T07:38:03;18.41;70.09
65378;SHT31;51982;51.042;13.806;2023-04-23T07:40:28;18.44;70.36
65378;SHT31;51982;51.042;13.806;2023-04-23T07:42:54;18.49;70.26
65378;SHT31;51982;51.042;13.806;2023-04-23T07:45:19;18.55;70.24
65378;SHT31;51982;51.042;13.806;2023-04-23T07:47:45;18.56;70.29
65378;SHT31;51982;51.042;13.806;2023-04-23T07:50:13;18.55;70.28
65378;SHT31;51982;51.042;13.806;2023-04-23T07:52:38;18.49;70.27
65378;SHT31;51982;51.042;13.806;2023-04-23T07:55:04;18.54;70.60
65378;SHT31;51982;51.042;13.806;2023-04-23T07:57:29;18.52;70.58
65378;SHT31;51982;51.042;13.806;2023-04-23T07:59:54;18.55;70.42
65378;SHT31;51982;51.042;13.806;2023-04-23T08:02:20;18.59;70.55
65378;SHT31;51982;51.042;13.806;2023-04-23T08:04:49;18.71;70.56
65378;SHT31;51982;51.042;13.806;2023-04-23T08:07:15;18.72;70.46
65378;SHT31;51982;51.042;13.806;2023-04-23T08:09:41;18.82;70.49
65378;SHT31;51982;51.042;13.806;2023-04-23T08:12:06;18.88;70.40
65378;SHT31;51982;51.042;13.806;2023-04-23T08:14:31;18.96;70.53
65378;SHT31;51982;51.042;13.806;2023-04-23T08:16:57;18.98;70.46
65378;SHT31;51982;51.042;13.806;2023-04-23T08:19:22;19.05;70.52
65378;SHT31;51982;51.042;13.806;2023-04-23T08:21:47;19.05;70.40
65378;SHT31;51982;51.042;13.806;2023-04-23T08:24:12;19.15;70.22
65378;SHT31;51982;51.042;13.806;2023-04-23T08:26:38;19.16;70.19
65378;SHT31;51982;51.042;13.806;2023-04-23T08:29:04;19.12;70.00
65378;SHT31;51982;51.042;13.806;2023-04-23T08:31:30;19.15;70.17
65378;SHT31;51982;51.042;13.806;2023-04-23T08:33:55;19.17;70.41
65378;SHT31;51982;51.042;13.806;2023-04-23T08:36:20;19.19;70.46
65378;SHT31;51982;51.042;13.806;2023-04-23T08:38:46;19.26;70.37
65378;SHT31;51982;51.042;13.806;2023-04-23T08:41:13;19.37;70.35
65378;SHT31;51982;51.042;13.806;2023-04-23T08:44:07;19.41;69.92
65378;SHT31;51982;51.042;13.806;2023-04-23T08:46:38;19.47;70.24
65378;SHT31;51982;51.042;13.806;2023-04-23T08:49:06;19.56;70.47
65378;SHT31;51982;51.042;13.806;2023-04-23T08:51:37;19.57;70.18
65378;SHT31;51982;51.042;13.806;2023-04-23T08:54:08;19.53;70.03
65378;SHT31;51982;51.042;13.806;2023-04-23T08:56:41;19.47;70.21
65378;SHT31;51982;51.042;13.806;2023-04-23T08:59:08;19.45;70.18
65378;SHT31;51982;51.042;13.806;2023-04-23T09:01:33;19.37;70.12
65378;SHT31;51982;51.042;13.806;2023-04-23T09:04:00;19.36;70.33
65378;SHT31;51982;51.042;13.806;2023-04-23T09:06:25;19.26;70.27
65378;SHT31;51982;51.042;13.806;2023-04-23T09:08:51;19.23;70.07
65378;SHT31;51982;51.042;13.806;2023-04-23T09:11:17;19.20;70.20
65378;SHT31;51982;51.042;13.806;2023-04-23T09:13:43;19.16;70.36
65378;SHT31;51982;51.042;13.806;2023-04-23T09:16:08;19.15;70.36
65378;SHT31;51982;51.042;13.806;2023-04-23T09:18:34;19.19;70.46
65378;SHT31;51982;51.042;13.806;2023-04-23T09:21:00;19.16;70.54
65378;SHT31;51982;51.042;13.806;2023-04-23T09:23:27;19.17;70.37
65378;SHT31;51982;51.042;13.806;2023-04-23T09:25:55;19.30;70.52
65378;SHT31;51982;51.042;13.806;2023-04-23T09:28:32;19.40;70.49
65378;SHT31;51982;51.042;13.806;2023-04-23T09:30:58;19.47;70.32
65378;SHT31;51982;51.042;13.806;2023-04-23T09:33:23;19.46;69.84
65378;SHT31;51982;51.042;13.806;2023-04-23T09:35:48;19.51;69.59
65378;SHT31;51982;51.042;13.806;2023-04-23T09:38:13;19.60;69.45
65378;SHT31;51982;51.042;13.806;2023-04-23T09:40:39;19.66;69.10
65378;SHT31;51982;51.042;13.806;2023-04-23T09:43:04;19.64;69.05
65378;SHT31;51982;51.042;13.806;2023-04-23T09:45:31;19.73;69.08
65378;SHT31;51982;51.042;13.806;2023-04-23T09:47:57;19.73;68.96
65378;SHT31;51982;51.042;13.806;2023-04-23T09:50:35;19.70;68.64
65378;SHT31;51982;51.042;13.806;2023-04-23T09:53:01;19.68;68.83
65378;SHT31;51982;51.042;13.806;2023-04-23T09:55:28;19.67;68.88
65378;SHT31;51982;51.042;13.806;2023-04-23T09:57:54;19.74;69.11
65378;SHT31;51982;51.042;13.806;2023-04-23T10:00:20;19.73;68.82
65378;SHT31;51982;51.042;13.806;2023-04-23T10:02:50;19.81;68.82
65378;SHT31;51982;51.042;13.806;2023-04-23T10:05:17;19.84;68.70
65378;SHT31;51982;51.042;13.806;2023-04-23T10:07:43;19.91;68.68
65378;SHT31;51982;51.042;13.806;2023-04-23T10:10:11;19.95;68.47
65378;SHT31;51982;51.042;13.806;2023-04-23T10:12:36;19.95;68.40
65378;SHT31;51982;51.042;13.806;2023-04-23T10:15:03;19.95;68.23
65378;SHT31;51982;51.042;13.806;2023-04-23T10:17:29;19.97;68.04
65378;SHT31;51982;51.042;13.806;2023-04-23T10:19:57;19.99;67.95
65378;SHT31;51982;51.042;13.806;2023-04-23T10:22:22;20.01;67.68
65378;SHT31;51982;51.042;13.806;2023-04-23T10:24:52;20.05;67.42
65378;SHT31;51982;51.042;13.806;2023-04-23T10:27:21;20.08;66.96
65378;SHT31;51982;51.042;13.806;2023-04-23T10:29:47;20.11;67.07
65378;SHT31;51982;51.042;13.806;2023-04-23T10:32:13;20.14;67.05
65378;SHT31;51982;51.042;13.806;2023-04-23T10:34:40;20.12;66.96
65378;SHT31;51982;51.042;13.806;2023-04-23T10:37:06;20.09;66.90
65378;SHT31;51982;51.042;13.806;2023-04-23T10:39:33;20.07;66.98
65378;SHT31;51982;51.042;13.806;2023-04-23T10:42:00;20.08;66.83
65378;SHT31;51982;51.042;13.806;2023-04-23T10:44:35;19.91;66.59
65378;SHT31;51982;51.042;13.806;2023-04-23T10:47:01;19.91;66.76
65378;SHT31;51982;51.042;13.806;2023-04-23T10:49:31;19.88;66.55
65378;SHT31;51982;51.042;13.806;2023-04-23T10:52:03;19.87;66.58
65378;SHT31;51982;51.042;13.806;2023-04-23T10:54:33;19.95;66.63
65378;SHT31;51982;51.042;13.806;2023-04-23T10:57:03;20.04;66.75
65378;SHT31;51982;51.042;13.806;2023-04-23T10:59:30;20.12;66.74
65378;SHT31;51982;51.042;13.806;2023-04-23T11:01:57;20.18;66.58
65378;SHT31;51982;51.042;13.806;2023-04-23T11:04:28;20.32;66.51
65378;SHT31;51982;51.042;13.806;2023-04-23T11:07:03;20.45;66.48
65378;SHT31;51982;51.042;13.806;2023-04-23T11:12:03;20.53;66.45
65378;SHT31;51982;51.042;13.806;2023-04-23T11:14:46;20.49;66.12
65378;SHT31;51982;51.042;13.806;2023-04-23T11:17:12;20.50;66.57
65378;SHT31;51982;51.042;13.806;2023-04-23T11:19:39;20.45;66.69
65378;SHT31;51982;51.042;13.806;2023-04-23T11:22:13;20.42;66.97
65378;SHT31;51982;51.042;13.806;2023-04-23T11:24:42;20.33;67.07
65378;SHT31;51982;51.042;13.806;2023-04-23T11:27:13;20.30;67.22
65378;SHT31;51982;51.042;13.806;2023-04-23T11:29:40;20.35;67.40
65378;SHT31;51982;51.042;13.806;2023-04-23T11:32:06;20.32;67.74
65378;SHT31;51982;51.042;13.806;2023-04-23T11:34:35;20.33;68.16
65378;SHT31;51982;51.042;13.806;2023-04-23T11:37:01;20.33;68.51
65378;SHT31;51982;51.042;13.806;2023-04-23T11:39:26;20.24;68.68
65378;SHT31;51982;51.042;13.806;2023-04-23T11:41:52;20.24;68.61
65378;SHT31;51982;51.042;13.806;2023-04-23T11:44:19;20.35;68.41
65378;SHT31;51982;51.042;13.806;2023-04-23T11:46:46;20.42;68.34
65378;SHT31;51982;51.042;13.806;2023-04-23T11:49:12;20.57;68.33
65378;SHT31;51982;51.042;13.806;2023-04-23T11:51:42;20.73;68.32
65378;SHT31;51982;51.042;13.806;2023-04-23T11:54:11;20.80;68.34
65378;SHT31;51982;51.042;13.806;2023-04-23T11:56:38;20.83;67.87
65378;SHT31;51982;51.042;13.806;2023-04-23T11:59:04;20.80;67.90
65378;SHT31;51982;51.042;13.806;2023-04-23T12:01:44;20.77;67.14
65378;SHT31;51982;51.042;13.806;2023-04-23T12:04:28;20.75;67.36
65378;SHT31;51982;51.042;13.806;2023-04-23T12:06:55;20.62;67.04
65378;SHT31;51982;51.042;13.806;2023-04-23T12:09:24;20.59;67.13
65378;SHT31;51982;51.042;13.806;2023-04-23T12:11:50;20.65;67.08
65378;SHT31;51982;51.042;13.806;2023-04-23T12:14:17;20.69;66.95
65378;SHT31;51982;51.042;13.806;2023-04-23T12:16:45;20.63;67.09
65378;SHT31;51982;51.042;13.806;2023-04-23T12:19:16;20.70;66.94
65378;SHT31;51982;51.042;13.806;2023-04-23T12:21:50;20.60;66.85
65378;SHT31;51982;51.042;13.806;2023-04-23T12:24:20;20.59;66.94
65378;SHT31;51982;51.042;13.806;2023-04-23T12:26:55;20.49;67.07
65378;SHT31;51982;51.042;13.806;2023-04-23T12:29:21;20.52;67.39
65378;SHT31;51982;51.042;13.806;2023-04-23T12:31:48;20.55;67.58
65378;SHT31;51982;51.042;13.806;2023-04-23T12:34:14;20.49;67.94
65378;SHT31;51982;51.042;13.806;2023-04-23T12:36:45;20.56;67.87
65378;SHT31;51982;51.042;13.806;2023-04-23T12:39:29;20.59;68.14
65378;SHT31;51982;51.042;13.806;2023-04-23T12:41:57;20.66;67.84
65378;SHT31;51982;51.042;13.806;2023-04-23T12:44:27;20.68;67.62
65378;SHT31;51982;51.042;13.806;2023-04-23T12:46:58;20.79;67.39
65378;SHT31;51982;51.042;13.806;2023-04-23T12:49:25;20.94;67.35
65378;SHT31;51982;51.042;13.806;2023-04-23T12:51:52;20.96;67.21
65378;SHT31;51982;51.042;13.806;2023-04-23T12:54:17;20.94;67.24
65378;SHT31;51982;51.042;13.806;2023-04-23T12:56:42;20.97;67.49
65378;SHT31;51982;51.042;13.806;2023-04-23T12:59:07;20.96;67.42
65378;SHT31;51982;51.042;13.806;2023-04-23T13:01:33;20.96;67.73
65378;SHT31;51982;51.042;13.806;2023-04-23T13:03:58;20.94;67.71
65378;SHT31;51982;51.042;13.806;2023-04-23T13:06:23;20.82;67.54
65378;SHT31;51982;51.042;13.806;2023-04-23T13:08:50;20.69;67.67
65378;SHT31;51982;51.042;13.806;2023-04-23T13:11:15;20.73;67.64
65378;SHT31;51982;51.042;13.806;2023-04-23T13:13:40;20.77;67.56
65378;SHT31;51982;51.042;13.806;2023-04-23T13:16:06;20.77;67.01
65378;SHT31;51982;51.042;13.806;2023-04-23T13:18:31;20.79;66.59
65378;SHT31;51982;51.042;13.806;2023-04-23T13:20:56;20.80;66.44
65378;SHT31;51982;51.042;13.806;2023-04-23T13:23:21;20.87;66.45
65378;SHT31;51982;51.042;13.806;2023-04-23T13:25:47;20.96;66.32
65378;SHT31;51982;51.042;13.806;2023-04-23T13:28:12;21.04;66.34
65378;SHT31;51982;51.042;13.806;2023-04-23T13:30:37;21.04;65.99
65378;SHT31;51982;51.042;13.806;2023-04-23T13:33:02;21.10;65.88
65378;SHT31;51982;51.042;13.806;2023-04-23T13:35:28;21.15;65.89
65378;SHT31;51982;51.042;13.806;2023-04-23T13:37:53;21.20;65.76
65378;SHT31;51982;51.042;13.806;2023-04-23T13:40:18;21.21;65.94
65378;SHT31;51982;51.042;13.806;2023-04-23T13:42:44;21.15;65.98
65378;SHT31;51982;51.042;13.806;2023-04-23T13:45:09;21.20;65.90
65378;SHT31;51982;51.042;13.806;2023-04-23T13:47:34;21.17;65.72
65378;SHT31;51982;51.042;13.806;2023-04-23T13:50:00;21.17;65.81
65378;SHT31;51982;51.042;13.806;2023-04-23T13:52:31;21.23;65.79
65378;SHT31;51982;51.042;13.806;2023-04-23T13:54:56;21.24;65.74
65378;SHT31;51982;51.042;13.806;2023-04-23T13:57:22;21.28;65.75
65378;SHT31;51982;51.042;13.806;2023-04-23T13:59:48;21.33;65.90
65378;SHT31;51982;51.042;13.806;2023-04-23T14:02:13;21.19;65.53
65378;SHT31;51982;51.042;13.806;2023-04-23T14:04:38;21.14;65.56
65378;SHT31;51982;51.042;13.806;2023-04-23T14:07:06;21.19;65.54
65378;SHT31;51982;51.042;13.806;2023-04-23T14:09:32;21.20;65.62
65378;SHT31;51982;51.042;13.806;2023-04-23T14:11:57;21.15;65.88
65378;SHT31;51982;51.042;13.806;2023-04-23T14:14:22;21.14;66.65
65378;SHT31;51982;51.042;13.806;2023-04-23T14:16:47;21.11;65.71
65378;SHT31;51982;51.042;13.806;2023-04-23T14:19:13;21.07;65.72
65378;SHT31;51982;51.042;13.806;2023-04-23T14:21:38;21.03;66.27
65378;SHT31;51982;51.042;13.806;2023-04-23T14:24:16;20.90;67.03
65378;SHT31;51982;51.042;13.806;2023-04-23T14:26:41;20.83;67.45
65378;SHT31;51982;51.042;13.806;2023-04-23T14:29:23;20.77;67.96
65378;SHT31;51982;51.042;13.806;2023-04-23T14:31:49;20.72;68.16
65378;SHT31;51982;51.042;13.806;2023-04-23T14:34:15;20.68;68.41
65378;SHT31;51982;51.042;13.806;2023-04-23T14:36:40;20.65;68.61
65378;SHT31;51982;51.042;13.806;2023-04-23T14:39:05;20.65;68.61
65378;SHT31;51982;51.042;13.806;2023-04-23T14:41:31;20.62;68.74
65378;SHT31;51982;51.042;13.806;2023-04-23T14:43:58;20.59;68.90
65378;SHT31;51982;51.042;13.806;2023-04-23T14:46:23;20.52;69.07
65378;SHT31;51982;51.042;13.806;2023-04-23T14:48:49;20.49;69.08
65378;SHT31;51982;51.042;13.806;2023-04-23T14:51:14;20.42;69.21
65378;SHT31;51982;51.042;13.806;2023-04-23T14:53:39;20.36;69.45
65378;SHT31;51982;51.042;13.806;2023-04-23T14:56:05;20.39;69.51
65378;SHT31;51982;51.042;13.806;2023-04-23T14:58:30;20.38;69.58
65378;SHT31;51982;51.042;13.806;2023-04-23T15:00:56;20.39;69.62
65378;SHT31;51982;51.042;13.806;2023-04-23T15:03:21;20.38;69.61
65378;SHT31;51982;51.042;13.806;2023-04-23T15:05:46;20.33;69.65
65378;SHT31;51982;51.042;13.806;2023-04-23T15:08:11;20.33;69.76
65378;SHT31;51982;51.042;13.806;2023-04-23T15:10:37;20.35;69.87
65378;SHT31;51982;51.042;13.806;2023-04-23T15:15:41;20.32;70.08